»·PEaware :: QXE2576 KPSP-KLAX

QXE2576 :: KPSP-KLAX

FLIGHT INFORMATION

Flight Status: Arrived
Operator:
Horizon Air
More flights by this operator :: More flights under this callsign
Pilot: Anonymous 16342 (16342)
Aircraft: DEHAVILLAND DASH 8 400
(DH8D)
More flights by this aircraft type
Origin: KPSP Palm Springs Intl
United States
Destination: KLAX Los Angeles Intl
United States
More flights between these airports :: More routes between these airports
Route: +CATH1 PSP V388 PDZ LAHAB
File this flight plan on PilotEdge
Remarks: PSPP10A
Altitude:
(Current/Filed)
10,000ft
Speed:
(Current/Filed)
271kts
Departed: 30-Mar-19 09:13 AM
Arrived: 30-Mar-19 09:51 AM
Distance/Time
Traveled:
95nm/0:38
Distance/Time
To Go:
Arrived

Flight Plot

Page will automatically refresh every two minutes.

Flight plan parsing failed; only flown route is shown


Map Options




Map Legend


Flown Route
Filed Route
Departure Airport
Arrival Airport
Navaid (VOR, NDB)
Fix

Horizontal Profiles

Position Reports

Time Latitude Longitude Heading Altitude Ground
Speed
30-Mar-19 08:55 33.821404 -116.506622 269 484ft 0kts
30-Mar-19 08:56 33.821404 -116.506622 269 484ft 0kts
30-Mar-19 08:57 33.821404 -116.506622 269 484ft 0kts
30-Mar-19 08:58 33.821404 -116.506622 269 484ft 0kts
30-Mar-19 08:59 33.821404 -116.506622 269 484ft 0kts
30-Mar-19 09:00 33.821404 -116.506622 269 484ft 0kts
30-Mar-19 09:01 33.821404 -116.506622 269 484ft 0kts
30-Mar-19 09:02 33.821404 -116.506622 269 484ft 0kts
30-Mar-19 09:03 33.821404 -116.506622 269 484ft 0kts
30-Mar-19 09:04 33.821404 -116.506622 269 484ft 0kts
30-Mar-19 09:05 33.821404 -116.506621 269 484ft 0kts
30-Mar-19 09:06 33.820849 -116.506954 168 484ft 1kts
30-Mar-19 09:07 33.819996 -116.506251 136 484ft 0kts
30-Mar-19 09:08 33.819641 -116.504059 93 484ft 9kts
30-Mar-19 09:09 33.819610 -116.500746 96 484ft 7kts
30-Mar-19 09:10 33.818498 -116.499071 80 484ft 0kts
30-Mar-19 09:11 33.818582 -116.498558 69 484ft 7kts
30-Mar-19 09:12 33.823646 -116.502185 321 484ft 92kts
30-Mar-19 09:13 33.852804 -116.533217 320 2455ft 141kts
30-Mar-19 09:14 33.886383 -116.564707 322 4990ft 150kts
30-Mar-19 09:15 33.916675 -116.553488 89 7255ft 157kts
30-Mar-19 09:16 33.892659 -116.500401 115 9405ft 196kts
30-Mar-19 09:17 33.871577 -116.435238 106 11390ft 221kts
30-Mar-19 09:18 33.841025 -116.359235 116 11983ft 295kts
30-Mar-19 09:19 33.801024 -116.267849 116 11990ft 329kts
30-Mar-19 09:20 33.732209 -116.204305 181 11952ft 336kts
30-Mar-19 09:21 33.669223 -116.268257 262 11948ft 319kts
30-Mar-19 09:22 33.713159 -116.349063 333 11982ft 317kts
30-Mar-19 09:23 33.793040 -116.389993 334 11972ft 315kts
30-Mar-19 09:24 33.865897 -116.441312 304 11979ft 308kts
30-Mar-19 09:25 33.896831 -116.533311 287 12004ft 298kts
30-Mar-19 09:26 33.920388 -116.627741 287 11990ft 296kts
30-Mar-19 09:27 33.943624 -116.720177 286 12017ft 293kts
30-Mar-19 09:28 33.946443 -116.817595 268 12035ft 297kts
30-Mar-19 09:29 33.942607 -116.917454 269 12020ft 299kts
30-Mar-19 09:30 33.939173 -117.015327 269 12019ft 299kts
30-Mar-19 09:31 33.935645 -117.113770 269 12026ft 298kts
30-Mar-19 09:32 33.931971 -117.207907 268 12018ft 299kts
30-Mar-19 09:33 33.927608 -117.308172 268 11389ft 309kts
30-Mar-19 09:34 33.923333 -117.411639 268 9865ft 302kts
30-Mar-19 09:35 33.919536 -117.505548 268 8400ft 275kts
30-Mar-19 09:36 33.918869 -117.592223 272 7894ft 233kts
30-Mar-19 09:37 33.920907 -117.664437 271 7988ft 222kts
30-Mar-19 09:38 33.922296 -117.733297 271 8010ft 214kts
30-Mar-19 09:39 33.923566 -117.803560 271 8004ft 206kts
30-Mar-19 09:40 33.924727 -117.870455 271 7998ft 198kts
30-Mar-19 09:41 33.925836 -117.931283 272 7993ft 191kts
30-Mar-19 09:42 33.928225 -117.997768 273 7489ft 226kts
30-Mar-19 09:43 33.912233 -118.067071 240 5488ft 221kts
30-Mar-19 09:44 33.924785 -118.123437 314 4443ft 167kts
30-Mar-19 09:45 33.952373 -118.169058 277 3678ft 196kts
30-Mar-19 09:46 33.952094 -118.231300 266 2750ft 165kts
30-Mar-19 09:47 33.947872 -118.281472 263 1800ft 132kts
30-Mar-19 09:48 33.943095 -118.327770 262 1005ft 135kts
30-Mar-19 09:49 33.938406 -118.373140 263 310ft 129kts
30-Mar-19 09:50 33.935928 -118.402566 284 134ft 27kts
30-Mar-19 09:51 33.936254 -118.404249 268 134ft 8kts
30-Mar-19 09:52 33.935927 -118.407579 265 134ft 6kts
30-Mar-19 09:53 33.937575 -118.409187 352 134ft 4kts
30-Mar-19 09:54 33.938406 -118.409246 19 134ft 7kts
30-Mar-19 09:55 33.938872 -118.406925 81 134ft 8kts
30-Mar-19 09:56 33.939241 -118.403562 82 134ft 11kts
30-Mar-19 09:57 33.939698 -118.400804 27 134ft 5kts
30-Mar-19 09:58 33.940680 -118.400207 81 133ft 0kts

Navigation Log

Ident Type
Flight plan parsing failed, navigation log unavailable